Terminal Aerodrome Forecast
Issued by NWS

Home | Current Version | Previous Version | Text Only | Print | Product List | Glossary On
Versions: 1 2 3 4 5 6 7 8 9 10 11 12 13 14 15 16 17 18 19 20 21 22 23 24 25
000
FTUS41 KBOX 251124
TAFFMH
TAF
KFMH 251124Z 2512/2612 27005KT 4SM BR OVC008
     FM251300 25004KT P6SM SCT015
     FM251400 VRB03KT P6SM FEW015 SCT080
     FM251700 22008KT P6SM FEW250
     FM252100 22012G22KT P6SM FEW200
     FM252300 23009KT P6SM FEW250
     FM260700 27007KT P6SM FEW250
     FM261100 31007KT P6SM FEW250=

USA.gov is the U.S. government's official web portal to all federal, state and local government web resources and services.